createdAt,value
2023-07-10T00:01:00.419Z,101488.19
2023-07-10T00:02:02.179Z,101484.56
2023-07-10T00:03:05.829Z,101482.69
2023-07-10T00:04:15.559Z,101483.59
2023-07-10T00:05:21.522Z,101486.44
2023-07-10T00:06:23.607Z,101486.47
2023-07-10T00:07:25.219Z,101486.47
2023-07-10T00:08:27.427Z,101485.50
2023-07-10T00:09:29.048Z,101478.31
2023-07-10T00:10:31.429Z,101482.91
2023-07-10T00:11:33.455Z,101486.56
2023-07-10T00:12:35.078Z,101488.38
2023-07-10T00:13:36.702Z,101481.19
2023-07-10T00:14:38.396Z,101483.78
2023-07-10T00:15:41.111Z,101481.09
2023-07-10T00:16:44.196Z,101480.09
2023-07-10T00:17:47.043Z,101474.78
2023-07-10T00:18:49.437Z,101478.34
2023-07-10T00:19:51.120Z,101481.09
2023-07-10T00:20:52.816Z,101475.81
2023-07-10T00:21:54.401Z,101473.09
2023-07-10T00:22:56.001Z,101476.78
2023-07-10T00:23:57.624Z,101474.19
2023-07-10T00:24:59.210Z,101471.50
2023-07-10T00:26:00.961Z,101469.97
2023-07-10T00:27:03.035Z,101473.81
2023-07-10T00:28:13.784Z,101473.81
2023-07-10T00:29:21.605Z,101472.91
2023-07-10T00:30:26.096Z,101477.41
2023-07-10T00:31:27.815Z,101477.50
2023-07-10T00:32:30.778Z,101473.00
2023-07-10T00:33:32.437Z,101472.22
2023-07-10T00:34:34.173Z,101475.09
2023-07-10T00:35:35.870Z,101473.47
2023-07-10T00:36:38.892Z,101476.19
2023-07-10T00:37:40.496Z,101481.50
2023-07-10T00:38:42.923Z,101475.22
2023-07-10T00:39:44.619Z,101478.84
2023-07-10T00:40:47.050Z,101481.63
2023-07-10T00:41:53.691Z,101486.16
2023-07-10T00:43:02.462Z,101484.47
2023-07-10T00:44:05.864Z,101480.16
2023-07-10T00:45:13.254Z,101482.97
2023-07-10T00:46:20.415Z,101482.06
2023-07-10T00:47:26.675Z,101495.91
2023-07-10T00:48:37.359Z,101490.44
2023-07-10T00:49:45.017Z,101500.44
2023-07-10T00:50:48.467Z,101504.28
2023-07-10T00:51:59.273Z,101515.00
2023-07-10T00:53:02.951Z,101513.06
2023-07-10T00:54:05.349Z,101519.22
2023-07-10T00:55:20.084Z,101523.59
2023-07-10T00:56:22.821Z,101524.69
2023-07-10T00:57:28.612Z,101520.06
2023-07-10T00:58:35.161Z,101520.75
2023-07-10T00:59:40.056Z,101526.00
2023-07-10T01:01:00.247Z,101531.38
2023-07-10T01:02:20.597Z,101527.88
2023-07-10T01:03:22.230Z,101525.09
2023-07-10T01:04:25.149Z,101529.53
2023-07-10T01:05:30.000Z,101534.41
2023-07-10T01:06:33.886Z,101539.81
2023-07-10T01:07:40.869Z,101547.44
2023-07-10T01:08:47.539Z,101557.63
2023-07-10T01:09:53.056Z,101576.63
2023-07-10T01:10:54.800Z,101597.06
2023-07-10T01:11:56.435Z,101594.31
2023-07-10T01:12:58.001Z,101603.06
2023-07-10T01:14:01.695Z,101605.56
2023-07-10T01:15:07.590Z,101598.94
2023-07-10T01:16:09.859Z,101596.22
2023-07-10T01:17:11.913Z,101590.19
2023-07-10T01:18:13.643Z,101579.56
2023-07-10T01:19:24.085Z,101593.78
2023-07-10T01:20:32.892Z,101587.47
2023-07-10T01:21:39.618Z,101584.72
2023-07-10T01:22:41.313Z,101581.66
2023-07-10T01:23:43.025Z,101578.91
2023-07-10T01:24:44.817Z,101574.97
2023-07-10T01:25:52.401Z,101572.28
2023-07-10T01:26:54.974Z,101567.59
2023-07-10T01:27:56.612Z,101571.41
2023-07-10T01:28:59.559Z,101586.13
2023-07-10T01:30:05.187Z,101578.03
2023-07-10T01:31:09.764Z,101559.72
2023-07-10T01:32:14.308Z,101565.56
2023-07-10T01:33:18.362Z,101561.53
2023-07-10T01:34:23.609Z,101547.88
2023-07-10T01:35:29.092Z,101548.66
2023-07-10T01:36:35.698Z,101546.69
2023-07-10T01:37:38.716Z,101544.66
2023-07-10T01:38:45.268Z,101531.84
2023-07-10T01:39:49.135Z,101525.25
2023-07-10T01:40:54.538Z,101524.28
2023-07-10T01:41:56.114Z,101518.75
2023-07-10T01:42:59.229Z,101514.09
2023-07-10T01:44:01.091Z,101506.78
2023-07-10T01:45:09.270Z,101504.94
2023-07-10T01:46:18.961Z,101499.53
2023-07-10T01:47:21.026Z,101485.19
2023-07-10T01:48:28.300Z,101484.28
2023-07-10T01:49:31.962Z,101470.78
2023-07-10T01:50:33.469Z,101475.19
2023-07-10T01:51:36.125Z,101464.66
2023-07-10T01:52:39.148Z,101459.41
2023-07-10T01:53:44.358Z,101448.63
2023-07-10T01:54:45.949Z,101445.94
2023-07-10T01:55:48.431Z,101441.47
2023-07-10T01:56:50.465Z,101440.63
2023-07-10T01:57:52.070Z,101434.31
2023-07-10T01:58:53.687Z,101430.78
2023-07-10T01:59:55.302Z,101432.63
2023-07-10T02:00:57.218Z,101424.63
2023-07-10T02:01:59.895Z,101424.63
2023-07-10T02:03:01.674Z,101426.59
2023-07-10T02:04:04.295Z,101428.97
2023-07-10T02:05:09.322Z,101426.88
2023-07-10T02:06:11.457Z,101440.38
2023-07-10T02:07:13.103Z,101428.66
2023-07-10T02:08:16.377Z,101424.94
2023-07-10T02:09:18.076Z,101423.13
2023-07-10T02:10:22.494Z,101422.31
2023-07-10T02:11:28.321Z,101410.66
2023-07-10T02:12:30.019Z,101416.81
2023-07-10T02:13:31.830Z,101408.69
2023-07-10T02:14:33.730Z,101410.38
2023-07-10T02:15:35.358Z,101408.47
2023-07-10T02:16:37.176Z,101409.28
2023-07-10T02:17:39.260Z,101407.41
2023-07-10T02:18:41.628Z,101409.09
2023-07-10T02:19:43.262Z,101408.06
2023-07-10T02:20:44.851Z,101407.13
2023-07-10T02:21:47.246Z,101410.69
2023-07-10T02:22:49.219Z,101410.59
2023-07-10T02:23:52.194Z,101408.88
2023-07-10T02:24:53.797Z,101411.31
2023-07-10T02:25:55.552Z,101409.31
2023-07-10T02:26:57.279Z,101413.84
2023-07-10T02:27:58.880Z,101415.44
2023-07-10T02:29:00.890Z,101420.50
2023-07-10T02:30:02.678Z,101413.13
2023-07-10T02:31:05.245Z,101418.34
2023-07-10T02:32:08.217Z,101414.69
2023-07-10T02:33:09.921Z,101414.53
2023-07-10T02:34:11.496Z,101408.16
2023-07-10T02:35:13.128Z,101408.88
2023-07-10T02:36:15.607Z,101407.84
2023-07-10T02:37:17.340Z,101399.78
2023-07-10T02:38:19.054Z,101404.19
2023-07-10T02:39:22.029Z,101404.03
2023-07-10T02:40:23.742Z,101398.53
2023-07-10T02:41:25.626Z,101398.38
2023-07-10T02:42:29.800Z,101392.00
2023-07-10T02:43:32.065Z,101388.34
2023-07-10T02:44:33.928Z,101383.88
2023-07-10T02:45:36.512Z,101390.13
2023-07-10T02:46:38.212Z,101388.22
2023-07-10T02:47:40.196Z,101387.28
2023-07-10T02:48:41.831Z,101383.78
2023-07-10T02:49:43.485Z,101381.91
2023-07-10T02:50:45.165Z,101379.19
2023-07-10T02:51:46.801Z,101385.47
2023-07-10T02:52:48.406Z,101380.09
2023-07-10T02:53:52.201Z,101372.94
2023-07-10T02:54:55.188Z,101379.31
2023-07-10T02:55:56.830Z,101380.25
2023-07-10T02:56:58.497Z,101380.16
2023-07-10T02:58:00.936Z,101375.63
2023-07-10T02:59:02.728Z,101372.94
2023-07-10T03:00:06.095Z,101380.09
2023-07-10T03:01:07.785Z,101375.47
2023-07-10T03:02:09.479Z,101379.91
2023-07-10T03:03:11.102Z,101369.03
2023-07-10T03:04:15.113Z,101367.28
2023-07-10T03:05:16.876Z,101360.06
2023-07-10T03:06:18.579Z,101362.78
2023-07-10T03:07:20.190Z,101365.44
2023-07-10T03:08:21.915Z,101362.66
2023-07-10T03:09:23.581Z,101361.72
2023-07-10T03:10:26.612Z,101364.41
2023-07-10T03:11:28.218Z,101356.38
2023-07-10T03:12:30.009Z,101345.69
2023-07-10T03:13:31.875Z,101359.13
2023-07-10T03:14:33.671Z,101359.09
2023-07-10T03:15:35.285Z,101359.16
2023-07-10T03:16:37.066Z,101357.38
2023-07-10T03:17:40.702Z,101358.09
2023-07-10T03:18:42.432Z,101360.97
2023-07-10T03:19:44.573Z,101354.81
2023-07-10T03:20:46.195Z,101358.59
2023-07-10T03:21:48.801Z,101358.69
2023-07-10T03:22:50.817Z,101356.06
2023-07-10T03:23:52.819Z,101357.00
2023-07-10T03:24:54.847Z,101349.06
2023-07-10T03:25:57.947Z,101351.88
2023-07-10T03:26:59.599Z,101357.53
2023-07-10T03:28:01.392Z,101351.38
2023-07-10T03:29:06.167Z,101355.97
2023-07-10T03:30:09.116Z,101360.63
2023-07-10T03:31:10.819Z,101355.47
2023-07-10T03:32:12.589Z,101354.16
2023-07-10T03:33:15.701Z,101362.66
2023-07-10T03:34:18.957Z,101365.75
2023-07-10T03:35:25.412Z,101362.84
2023-07-10T03:36:29.151Z,101361.81
2023-07-10T03:37:30.753Z,101361.69
2023-07-10T03:38:32.444Z,101376.16
2023-07-10T03:39:34.082Z,101363.66
2023-07-10T03:40:35.862Z,101372.81
2023-07-10T03:41:38.985Z,101365.75
2023-07-10T03:42:40.578Z,101369.25
2023-07-10T03:43:42.305Z,101368.22
2023-07-10T03:44:43.889Z,101371.69
2023-07-10T03:45:45.553Z,101360.00
2023-07-10T03:46:47.409Z,101362.66
2023-07-10T03:47:49.158Z,101368.97
2023-07-10T03:48:50.966Z,101351.94
2023-07-10T03:49:52.582Z,101361.72
2023-07-10T03:50:54.260Z,101365.19
2023-07-10T03:51:55.966Z,101356.25
2023-07-10T03:52:57.720Z,101360.81
2023-07-10T03:53:59.485Z,101351.81
2023-07-10T03:55:01.088Z,101353.56
2023-07-10T03:56:03.578Z,101355.31
2023-07-10T03:57:07.400Z,101352.63
2023-07-10T03:58:19.362Z,101353.56
2023-07-10T03:59:21.032Z,101343.78
2023-07-10T04:00:22.787Z,101351.91
2023-07-10T04:01:24.523Z,101344.88
2023-07-10T04:02:26.292Z,101345.03
2023-07-10T04:03:29.610Z,101342.44
2023-07-10T04:04:31.276Z,101352.31
2023-07-10T04:05:32.931Z,101342.56
2023-07-10T04:06:34.751Z,101347.03
2023-07-10T04:07:36.557Z,101351.44
2023-07-10T04:08:40.521Z,101352.34
2023-07-10T04:09:42.213Z,101345.28
2023-07-10T04:10:49.408Z,101346.03
2023-07-10T04:11:51.082Z,101336.97
2023-07-10T04:12:54.075Z,101328.81
2023-07-10T04:13:55.729Z,101326.97
2023-07-10T04:14:57.508Z,101326.03
2023-07-10T04:16:00.953Z,101328.66
2023-07-10T04:17:02.757Z,101319.63
2023-07-10T04:18:04.716Z,101317.75
2023-07-10T04:19:06.376Z,101310.53
2023-07-10T04:20:09.053Z,101309.59
2023-07-10T04:21:16.628Z,101308.72
2023-07-10T04:22:18.255Z,101308.72
2023-07-10T04:23:19.911Z,101312.28
2023-07-10T04:24:21.776Z,101304.13
2023-07-10T04:25:23.493Z,101307.59
2023-07-10T04:26:26.936Z,101311.94
2023-07-10T04:27:28.654Z,101311.13
2023-07-10T04:28:31.629Z,101310.22
2023-07-10T04:29:33.237Z,101307.44
2023-07-10T04:30:35.252Z,101305.53
2023-07-10T04:31:37.137Z,101305.38
2023-07-10T04:32:38.848Z,101295.44
2023-07-10T04:33:40.702Z,101295.38
2023-07-10T04:34:42.387Z,101294.38
2023-07-10T04:35:44.955Z,101303.19
2023-07-10T04:36:46.555Z,101304.00
2023-07-10T04:37:48.236Z,101300.47
2023-07-10T04:38:50.893Z,101295.00
2023-07-10T04:39:53.416Z,101301.19
2023-07-10T04:40:56.081Z,101292.03
2023-07-10T04:41:57.738Z,101291.88
2023-07-10T04:42:59.328Z,101290.94
2023-07-10T04:44:02.270Z,101291.72
2023-07-10T04:45:05.299Z,101291.59
2023-07-10T04:46:09.910Z,101291.69
2023-07-10T04:47:11.874Z,101289.72
2023-07-10T04:48:13.834Z,101295.81
2023-07-10T04:49:15.530Z,101292.91
2023-07-10T04:50:19.325Z,101290.09
2023-07-10T04:51:21.252Z,101290.09
2023-07-10T04:52:22.954Z,101290.00
2023-07-10T04:53:24.561Z,101302.38
2023-07-10T04:54:26.196Z,101291.53
2023-07-10T04:55:29.132Z,101302.28
2023-07-10T04:56:30.847Z,101306.13
2023-07-10T04:57:32.566Z,101297.75
2023-07-10T04:58:49.050Z,101300.13
2023-07-10T04:59:52.074Z,101311.59
2023-07-10T05:00:56.712Z,101325.78
2023-07-10T05:01:58.387Z,101338.16
2023-07-10T05:03:00.153Z,101361.66
2023-07-10T05:04:02.829Z,101376.38
2023-07-10T05:05:05.288Z,101387.03
2023-07-10T05:06:07.239Z,101407.72
2023-07-10T05:07:10.996Z,101417.81
2023-07-10T05:08:15.914Z,101436.91
2023-07-10T05:09:17.621Z,101421.56
2023-07-10T05:10:19.307Z,101416.06
2023-07-10T05:11:23.312Z,101395.75
2023-07-10T05:12:25.121Z,101360.28
2023-07-10T05:13:28.832Z,101334.78
2023-07-10T05:14:30.511Z,101323.66
2023-07-10T05:15:33.414Z,101309.94
2023-07-10T05:16:35.058Z,101312.38
2023-07-10T05:17:36.707Z,101320.25
2023-07-10T05:18:38.360Z,101328.28
2023-07-10T05:19:40.092Z,101333.84
2023-07-10T05:20:44.979Z,101352.63
2023-07-10T05:21:46.659Z,101373.25
2023-07-10T05:22:48.348Z,101379.91
2023-07-10T05:23:50.056Z,101380.25
2023-07-10T05:24:52.643Z,101385.78
2023-07-10T05:25:55.964Z,101401.06
2023-07-10T05:26:57.607Z,101411.16
2023-07-10T05:27:59.341Z,101430.22
2023-07-10T05:29:01.094Z,101459.59
2023-07-10T05:30:02.799Z,101517.28
2023-07-10T05:31:07.747Z,101585.22
2023-07-10T05:32:09.956Z,101610.09
2023-07-10T05:33:11.741Z,101579.66
2023-07-10T05:34:13.372Z,101608.13
2023-07-10T05:35:15.249Z,101546.34
2023-07-10T05:36:17.402Z,101519.22
2023-07-10T05:37:19.066Z,101512.66
2023-07-10T05:38:21.810Z,101500.88
2023-07-10T05:39:23.482Z,101490.84
2023-07-10T05:40:25.190Z,101491.16
2023-07-10T05:41:28.563Z,101478.44
2023-07-10T05:42:30.250Z,101472.03
2023-07-10T05:43:33.224Z,101470.97
2023-07-10T05:44:34.897Z,101473.63
2023-07-10T05:45:36.710Z,101479.88
2023-07-10T05:46:39.817Z,101491.91
2023-07-10T05:47:41.657Z,101496.19
2023-07-10T05:48:43.278Z,101486.94
2023-07-10T05:49:44.959Z,101489.44
2023-07-10T05:50:48.121Z,101487.41
2023-07-10T05:51:49.767Z,101482.78
2023-07-10T05:52:51.400Z,101477.31
2023-07-10T05:53:52.960Z,101474.59
2023-07-10T05:54:54.610Z,101478.06
2023-07-10T05:55:57.533Z,101481.47
2023-07-10T05:56:59.501Z,101481.50
2023-07-10T05:58:01.203Z,101485.75
2023-07-10T05:59:03.083Z,101495.00
2023-07-10T06:00:06.198Z,101496.66
2023-07-10T06:01:07.945Z,101493.78
2023-07-10T06:02:11.737Z,101490.91
2023-07-10T06:03:14.695Z,101469.34
2023-07-10T06:04:16.714Z,101457.56
2023-07-10T06:05:18.327Z,101453.81
2023-07-10T06:06:20.284Z,101456.44
2023-07-10T06:07:22.046Z,101463.28
2023-07-10T06:08:24.409Z,101461.06
2023-07-10T06:09:26.029Z,101463.50
2023-07-10T06:10:27.724Z,101454.31
2023-07-10T06:11:29.411Z,101446.06
2023-07-10T06:12:31.048Z,101441.44
2023-07-10T06:13:32.968Z,101427.00
2023-07-10T06:14:34.633Z,101417.88
2023-07-10T06:15:36.248Z,101408.81
2023-07-10T06:16:37.960Z,101401.59
2023-07-10T06:17:41.004Z,101397.94
2023-07-10T06:18:42.592Z,101396.97
2023-07-10T06:19:44.306Z,101393.28
2023-07-10T06:20:52.526Z,101405.81
2023-07-10T06:22:05.493Z,101409.75
2023-07-10T06:23:07.429Z,101413.44
2023-07-10T06:24:10.103Z,101418.13
2023-07-10T06:25:12.285Z,101426.47
2023-07-10T06:26:14.089Z,101426.75
2023-07-10T06:27:17.140Z,101419.78
2023-07-10T06:28:19.824Z,101423.06
2023-07-10T06:29:21.468Z,101418.44
2023-07-10T06:30:23.797Z,101430.72
2023-07-10T06:31:27.047Z,101420.78
2023-07-10T06:32:29.038Z,101422.41
2023-07-10T06:33:33.177Z,101416.97
2023-07-10T06:34:34.908Z,101419.56
2023-07-10T06:35:40.421Z,101411.44
2023-07-10T06:36:42.370Z,101404.28
2023-07-10T06:37:44.938Z,101400.66
2023-07-10T06:38:46.493Z,101386.41
2023-07-10T06:40:07.591Z,101388.06
2023-07-10T06:41:09.369Z,101369.13
2023-07-10T06:42:14.927Z,101359.13
2023-07-10T06:43:21.782Z,101347.31
2023-07-10T06:44:23.414Z,101344.47
2023-07-10T06:45:25.146Z,101331.81
2023-07-10T06:46:26.951Z,101338.03
2023-07-10T06:47:32.209Z,101334.25
2023-07-10T06:48:35.268Z,101335.88
2023-07-10T06:49:37.136Z,101333.91
2023-07-10T06:50:39.083Z,101336.56
2023-07-10T06:51:40.757Z,101329.38
2023-07-10T06:52:44.296Z,101335.44
2023-07-10T06:53:45.963Z,101337.03
2023-07-10T06:54:47.791Z,101332.34
2023-07-10T06:55:53.194Z,101326.81
2023-07-10T06:56:54.812Z,101325.75
2023-07-10T06:57:56.418Z,101331.94
2023-07-10T06:58:58.027Z,101328.25
2023-07-10T07:00:01.228Z,101326.25
2023-07-10T07:01:04.365Z,101333.22
2023-07-10T07:02:07.859Z,101329.56
2023-07-10T07:03:09.787Z,101340.22
2023-07-10T07:04:12.957Z,101328.47
2023-07-10T07:05:15.088Z,101330.16
2023-07-10T07:06:16.902Z,101336.41
2023-07-10T07:07:18.733Z,101338.16
2023-07-10T07:08:21.253Z,101333.75
2023-07-10T07:09:23.313Z,101349.03
2023-07-10T07:10:25.042Z,101349.81
2023-07-10T07:11:26.820Z,101341.59
2023-07-10T07:12:28.603Z,101339.72
2023-07-10T07:13:30.240Z,101341.38
2023-07-10T07:14:32.349Z,101342.13
2023-07-10T07:15:34.072Z,101342.00
2023-07-10T07:16:35.919Z,101347.16
2023-07-10T07:17:40.778Z,101340.72
2023-07-10T07:18:42.552Z,101344.22
2023-07-10T07:19:47.002Z,101328.94
2023-07-10T07:20:49.575Z,101341.47
2023-07-10T07:21:51.239Z,101330.81
2023-07-10T07:22:52.934Z,101332.53
2023-07-10T07:23:54.797Z,101331.63
2023-07-10T07:24:56.418Z,101323.47
2023-07-10T07:25:58.690Z,101324.28
2023-07-10T07:27:00.333Z,101326.94
2023-07-10T07:28:02.076Z,101334.03
2023-07-10T07:29:03.971Z,101324.13
2023-07-10T07:30:07.747Z,101330.38
2023-07-10T07:31:09.393Z,101325.00
2023-07-10T07:32:11.852Z,101325.00
2023-07-10T07:33:13.680Z,101327.00
2023-07-10T07:34:15.280Z,101331.66
2023-07-10T07:35:18.431Z,101328.38
2023-07-10T07:36:20.113Z,101331.19
2023-07-10T07:37:21.870Z,101332.72
2023-07-10T07:38:23.670Z,101321.69
2023-07-10T07:39:26.137Z,101323.13
2023-07-10T07:40:28.121Z,101325.50
2023-07-10T07:41:31.103Z,101324.34
2023-07-10T07:42:34.318Z,101326.81
2023-07-10T07:43:36.043Z,101316.69
2023-07-10T07:44:37.882Z,101320.91
2023-07-10T07:45:39.594Z,101312.84
2023-07-10T07:46:41.192Z,101310.16
2023-07-10T07:47:43.395Z,101324.56
2023-07-10T07:48:45.210Z,101316.13
2023-07-10T07:49:46.945Z,101315.69
2023-07-10T07:50:58.340Z,101317.25
2023-07-10T07:52:00.369Z,101326.91
2023-07-10T07:53:01.982Z,101324.16
2023-07-10T07:54:06.848Z,101322.00
2023-07-10T07:55:09.209Z,101325.34
2023-07-10T07:56:11.465Z,101326.47
2023-07-10T07:57:13.254Z,101331.81
2023-07-10T07:58:15.042Z,101331.47
2023-07-10T07:59:16.838Z,101315.06
2023-07-10T08:00:21.674Z,101317.34
2023-07-10T08:01:23.956Z,101315.22
2023-07-10T08:02:25.554Z,101323.16
2023-07-10T08:03:27.687Z,101322.69
2023-07-10T08:04:29.465Z,101316.78
2023-07-10T08:05:36.007Z,101324.47
2023-07-10T08:06:40.812Z,101315.94
2023-07-10T08:07:43.442Z,101317.56
2023-07-10T08:08:45.591Z,101318.72
2023-07-10T08:09:47.507Z,101331.75
2023-07-10T08:10:50.755Z,101321.16
2023-07-10T08:11:54.196Z,101323.06
2023-07-10T08:12:55.857Z,101310.03
2023-07-10T08:13:57.598Z,101313.34
2023-07-10T08:15:02.598Z,101313.03
2023-07-10T08:16:04.905Z,101319.88
2023-07-10T08:17:07.479Z,101311.41
2023-07-10T08:18:09.635Z,101321.03
2023-07-10T08:19:11.215Z,101320.56
2023-07-10T08:20:13.325Z,101316.44
2023-07-10T08:21:16.397Z,101321.59
2023-07-10T08:22:19.461Z,101317.56
2023-07-10T08:23:21.051Z,101321.66
2023-07-10T08:24:22.690Z,101321.66
2023-07-10T08:25:24.395Z,101319.59
2023-07-10T08:26:26.233Z,101323.91
2023-07-10T08:27:28.085Z,101315.34
2023-07-10T08:28:29.712Z,101324.09
2023-07-10T08:29:32.630Z,101326.75
2023-07-10T08:30:34.334Z,101322.91
2023-07-10T08:31:35.985Z,101320.66
2023-07-10T08:32:37.811Z,101322.28
2023-07-10T08:33:39.401Z,101318.63
2023-07-10T08:34:40.994Z,101312.97
2023-07-10T08:35:42.661Z,101318.50
2023-07-10T08:36:44.272Z,101319.19
2023-07-10T08:37:49.045Z,101320.44
2023-07-10T08:38:50.665Z,101324.44
2023-07-10T08:39:52.882Z,101327.72
2023-07-10T08:40:57.622Z,101333.78
2023-07-10T08:42:03.192Z,101326.06
2023-07-10T08:43:18.147Z,101327.16
2023-07-10T08:44:19.987Z,101337.28
2023-07-10T08:45:32.886Z,101331.78
2023-07-10T08:46:34.679Z,101326.06
2023-07-10T08:47:40.272Z,101329.09
2023-07-10T08:48:47.612Z,101331.66
2023-07-10T08:49:54.136Z,101327.03
2023-07-10T08:51:01.628Z,101324.53
2023-07-10T08:52:08.015Z,101326.38
2023-07-10T08:53:12.857Z,101328.38
2023-07-10T08:54:16.737Z,101324.66
2023-07-10T08:55:26.660Z,101327.47
2023-07-10T08:56:32.006Z,101330.56
2023-07-10T08:57:36.478Z,101330.88
2023-07-10T08:58:39.369Z,101334.00
2023-07-10T08:59:49.167Z,101330.28
2023-07-10T09:00:54.814Z,101325.84
2023-07-10T09:01:58.051Z,101330.59
2023-07-10T09:03:06.206Z,101331.88
2023-07-10T09:04:14.167Z,101332.03
2023-07-10T09:05:22.017Z,101331.06
2023-07-10T09:06:34.177Z,101318.34
2023-07-10T09:07:39.957Z,101316.09
2023-07-10T09:08:44.062Z,101312.09
2023-07-10T09:09:50.453Z,101314.88
2023-07-10T09:10:55.511Z,101308.13
2023-07-10T09:12:00.005Z,101321.63
2023-07-10T09:13:02.420Z,101313.25
2023-07-10T09:14:21.500Z,101314.81
2023-07-10T09:15:25.042Z,101307.25
2023-07-10T09:16:26.697Z,101305.69
2023-07-10T09:17:36.963Z,101309.31
2023-07-10T09:18:47.599Z,101311.25
2023-07-10T09:19:53.965Z,101303.69
2023-07-10T09:21:00.273Z,101298.22
2023-07-10T09:22:02.061Z,101303.81
2023-07-10T09:23:05.582Z,101298.50
2023-07-10T09:24:15.196Z,101305.44
2023-07-10T09:25:16.981Z,101308.78
2023-07-10T09:26:20.611Z,101314.75
2023-07-10T09:27:22.264Z,101316.06
2023-07-10T09:28:24.928Z,101314.63
2023-07-10T09:29:32.137Z,101315.66
2023-07-10T09:30:52.486Z,101317.50
2023-07-10T09:31:57.632Z,101314.88
2023-07-10T09:33:03.536Z,101311.53
2023-07-10T09:34:05.447Z,101305.41
2023-07-10T09:35:07.440Z,101299.97
2023-07-10T09:36:16.951Z,101306.88
2023-07-10T09:37:21.062Z,101297.41
2023-07-10T09:38:22.794Z,101294.50
2023-07-10T09:39:28.328Z,101307.16
2023-07-10T09:40:37.793Z,101304.41
2023-07-10T09:41:39.501Z,101299.84
2023-07-10T09:42:42.308Z,101305.91
2023-07-10T09:43:50.593Z,101300.16
2023-07-10T09:44:56.794Z,101308.31
2023-07-10T09:46:00.185Z,101297.63
2023-07-10T09:47:08.126Z,101305.91
2023-07-10T09:48:24.661Z,101306.00
2023-07-10T09:49:35.310Z,101298.41
2023-07-10T09:50:37.173Z,101297.44
2023-07-10T09:51:48.256Z,101305.25
2023-07-10T09:52:55.331Z,101303.16
2023-07-10T09:54:01.711Z,101303.38
2023-07-10T09:55:15.283Z,101307.63
2023-07-10T09:56:23.067Z,101301.91
2023-07-10T09:57:24.714Z,101301.34
2023-07-10T09:58:27.267Z,101298.59
2023-07-10T09:59:32.817Z,101300.53
2023-07-10T10:00:43.401Z,101294.31
2023-07-10T10:01:47.841Z,101296.59
2023-07-10T10:02:56.337Z,101293.34
2023-07-10T10:03:58.475Z,101295.00
2023-07-10T10:05:09.332Z,101287.03
2023-07-10T10:06:20.937Z,101279.81
2023-07-10T10:07:22.806Z,101288.69
2023-07-10T10:08:27.396Z,101284.88
2023-07-10T10:09:29.605Z,101281.19
2023-07-10T10:10:34.232Z,101291.97
2023-07-10T10:11:40.192Z,101291.19
2023-07-10T10:12:42.282Z,101286.22
2023-07-10T10:13:48.575Z,101286.88
2023-07-10T10:14:54.141Z,101291.09
2023-07-10T10:16:01.154Z,101296.56
2023-07-10T10:17:08.033Z,101290.53
2023-07-10T10:18:20.460Z,101285.91
2023-07-10T10:19:26.456Z,101287.00
2023-07-10T10:20:31.233Z,101291.56
2023-07-10T10:21:35.680Z,101303.69
2023-07-10T10:22:37.293Z,101300.13
2023-07-10T10:23:41.104Z,101295.72
2023-07-10T10:24:43.273Z,101290.81
2023-07-10T10:25:47.722Z,101296.13
2023-07-10T10:27:16.959Z,101284.84
2023-07-10T10:28:30.568Z,101290.72
2023-07-10T10:30:00.411Z,101292.22
2023-07-10T10:31:08.336Z,101288.03
2023-07-10T10:32:21.742Z,101288.19
2023-07-10T10:33:31.022Z,101288.28
2023-07-10T10:34:41.612Z,101293.94
2023-07-10T10:35:54.618Z,101293.38
2023-07-10T10:37:09.568Z,101287.22
2023-07-10T10:38:28.901Z,101287.81
2023-07-10T10:39:37.583Z,101290.28
2023-07-10T10:40:48.590Z,101290.72
2023-07-10T10:41:56.275Z,101282.25
2023-07-10T10:43:05.445Z,101281.00
2023-07-10T10:44:17.372Z,101275.53
2023-07-10T10:45:24.988Z,101281.84
2023-07-10T10:46:38.078Z,101285.97
2023-07-10T10:47:48.906Z,101287.53
2023-07-10T10:49:02.772Z,101280.78
2023-07-10T10:50:20.041Z,101282.31
2023-07-10T10:51:29.792Z,101273.59
2023-07-10T10:52:40.203Z,101275.53
2023-07-10T10:53:49.909Z,101284.16
2023-07-10T10:55:07.503Z,101271.22
2023-07-10T10:56:21.965Z,101270.72
2023-07-10T10:57:36.273Z,101258.47
2023-07-10T10:58:50.894Z,101257.25
2023-07-10T11:00:02.597Z,101264.03
2023-07-10T11:01:32.834Z,101254.50
2023-07-10T11:02:53.628Z,101255.63
2023-07-10T11:04:00.933Z,101258.84
2023-07-10T11:05:13.642Z,101253.63
2023-07-10T11:06:34.264Z,101250.09
2023-07-10T11:07:38.591Z,101249.09
2023-07-10T11:08:45.757Z,101248.19
2023-07-10T11:09:51.164Z,101257.13
2023-07-10T11:10:54.818Z,101251.47
2023-07-10T11:11:58.622Z,101245.00
2023-07-10T11:13:04.417Z,101255.72
2023-07-10T11:14:06.359Z,101248.84
2023-07-10T11:15:17.408Z,101248.50
2023-07-10T11:16:21.963Z,101251.38
2023-07-10T11:17:24.427Z,101245.75
2023-07-10T11:18:26.623Z,101244.47
2023-07-10T11:19:31.331Z,101252.78
2023-07-10T11:20:33.445Z,101246.78
2023-07-10T11:21:35.097Z,101254.38
2023-07-10T11:22:36.685Z,101257.94
2023-07-10T11:23:47.302Z,101253.91
2023-07-10T11:24:50.604Z,101249.47
2023-07-10T11:26:00.189Z,101249.78
2023-07-10T11:27:11.264Z,101261.69
2023-07-10T11:28:22.692Z,101257.94
2023-07-10T11:29:40.054Z,101255.38
2023-07-10T11:30:41.654Z,101263.97
2023-07-10T11:31:44.007Z,101259.34
2023-07-10T11:32:58.094Z,101264.38
2023-07-10T11:34:42.231Z,101268.75
2023-07-10T11:36:11.897Z,101264.38
2023-07-10T11:37:35.046Z,101267.50
2023-07-10T11:38:36.958Z,101261.81
2023-07-10T11:39:38.668Z,101267.00
2023-07-10T11:41:02.563Z,101269.97
2023-07-10T11:42:16.905Z,101266.63
2023-07-10T11:43:52.725Z,101259.53
2023-07-10T11:44:59.776Z,101260.94
2023-07-10T11:46:05.533Z,101266.22
2023-07-10T11:47:35.710Z,101267.94
2023-07-10T11:48:39.020Z,101267.16
2023-07-10T11:49:46.382Z,101262.72
2023-07-10T11:50:49.609Z,101264.63
2023-07-10T11:52:26.521Z,101262.44
2023-07-10T11:53:28.116Z,101256.63
2023-07-10T11:54:40.124Z,101256.19
2023-07-10T11:55:58.177Z,101254.41
2023-07-10T11:57:10.941Z,101257.22
2023-07-10T11:58:25.166Z,101259.09
2023-07-10T11:59:28.067Z,101261.22
2023-07-10T12:00:31.658Z,101266.00
2023-07-10T12:01:34.401Z,101264.94
2023-07-10T12:02:43.259Z,101268.03
2023-07-10T12:03:46.093Z,101267.06
2023-07-10T12:04:47.929Z,101262.78
2023-07-10T12:05:49.530Z,101266.84
2023-07-10T12:06:51.223Z,101265.19
2023-07-10T12:08:00.572Z,101271.97
2023-07-10T12:09:04.829Z,101267.44
2023-07-10T12:10:12.103Z,101263.66
2023-07-10T12:11:28.341Z,101269.97
2023-07-10T12:12:32.649Z,101261.44
2023-07-10T12:13:37.866Z,101272.81
2023-07-10T12:14:40.955Z,101269.09
2023-07-10T12:15:43.149Z,101258.75